sensor_id;sensor_type;location;lat;lon;timestamp;P1;durP1;ratioP1;P2;durP2;ratioP2
20207;SDS011;10263;48.716;8.760;2022-07-25T00:00:09;9.23;;;8.40;;
20207;SDS011;10263;48.716;8.760;2022-07-25T00:02:37;8.52;;;7.72;;
20207;SDS011;10263;48.716;8.760;2022-07-25T00:05:04;9.95;;;8.35;;
20207;SDS011;10263;48.716;8.760;2022-07-25T00:07:31;8.35;;;7.55;;
20207;SDS011;10263;48.716;8.760;2022-07-25T00:09:58;8.63;;;7.90;;
20207;SDS011;10263;48.716;8.760;2022-07-25T00:12:26;9.55;;;7.80;;
20207;SDS011;10263;48.716;8.760;2022-07-25T00:14:53;8.88;;;7.97;;
20207;SDS011;10263;48.716;8.760;2022-07-25T00:17:20;9.55;;;8.52;;
20207;SDS011;10263;48.716;8.760;2022-07-25T00:19:47;8.82;;;7.95;;
20207;SDS011;10263;48.716;8.760;2022-07-25T00:22:13;8.60;;;7.70;;
20207;SDS011;10263;48.716;8.760;2022-07-25T00:24:40;9.02;;;8.23;;
20207;SDS011;10263;48.716;8.760;2022-07-25T00:27:07;8.65;;;7.85;;
20207;SDS011;10263;48.716;8.760;2022-07-25T00:29:35;10.43;;;8.73;;
20207;SDS011;10263;48.716;8.760;2022-07-25T00:32:02;9.93;;;8.60;;
20207;SDS011;10263;48.716;8.760;2022-07-25T00:34:29;8.85;;;8.05;;
20207;SDS011;10263;48.716;8.760;2022-07-25T00:36:55;9.15;;;8.20;;
20207;SDS011;10263;48.716;8.760;2022-07-25T00:39:22;8.13;;;7.32;;
20207;SDS011;10263;48.716;8.760;2022-07-25T00:41:49;8.32;;;7.63;;
20207;SDS011;10263;48.716;8.760;2022-07-25T00:44:22;8.20;;;7.40;;
20207;SDS011;10263;48.716;8.760;2022-07-25T00:46:51;8.88;;;8.05;;
20207;SDS011;10263;48.716;8.760;2022-07-25T00:49:18;8.07;;;7.40;;
20207;SDS011;10263;48.716;8.760;2022-07-25T00:51:45;9.23;;;8.32;;
20207;SDS011;10263;48.716;8.760;2022-07-25T00:54:12;9.55;;;8.27;;
20207;SDS011;10263;48.716;8.760;2022-07-25T00:56:40;8.63;;;7.93;;
20207;SDS011;10263;48.716;8.760;2022-07-25T00:59:07;8.55;;;7.75;;
20207;SDS011;10263;48.716;8.760;2022-07-25T01:01:35;8.75;;;7.97;;
20207;SDS011;10263;48.716;8.760;2022-07-25T01:04:04;9.15;;;8.23;;
20207;SDS011;10263;48.716;8.760;2022-07-25T01:06:31;9.63;;;8.40;;
20207;SDS011;10263;48.716;8.760;2022-07-25T01:08:58;9.75;;;8.75;;
20207;SDS011;10263;48.716;8.760;2022-07-25T01:11:26;9.40;;;8.07;;
20207;SDS011;10263;48.716;8.760;2022-07-25T01:13:53;8.82;;;7.97;;
20207;SDS011;10263;48.716;8.760;2022-07-25T01:16:20;8.95;;;8.15;;
20207;SDS011;10263;48.716;8.760;2022-07-25T01:18:47;8.77;;;7.97;;
20207;SDS011;10263;48.716;8.760;2022-07-25T01:21:15;9.70;;;8.65;;
20207;SDS011;10263;48.716;8.760;2022-07-25T01:23:42;9.35;;;8.45;;
20207;SDS011;10263;48.716;8.760;2022-07-25T01:26:09;9.80;;;8.90;;
20207;SDS011;10263;48.716;8.760;2022-07-25T01:28:36;9.35;;;8.48;;
20207;SDS011;10263;48.716;8.760;2022-07-25T01:31:03;9.88;;;8.95;;
20207;SDS011;10263;48.716;8.760;2022-07-25T01:33:30;10.00;;;9.02;;
20207;SDS011;10263;48.716;8.760;2022-07-25T01:35:57;9.85;;;8.90;;
20207;SDS011;10263;48.716;8.760;2022-07-25T01:38:25;10.13;;;9.10;;
20207;SDS011;10263;48.716;8.760;2022-07-25T01:40:52;9.60;;;8.77;;
20207;SDS011;10263;48.716;8.760;2022-07-25T01:43:18;9.60;;;8.70;;
20207;SDS011;10263;48.716;8.760;2022-07-25T01:45:45;10.40;;;9.40;;
20207;SDS011;10263;48.716;8.760;2022-07-25T01:48:12;9.38;;;8.55;;
20207;SDS011;10263;48.716;8.760;2022-07-25T01:50:39;9.57;;;8.68;;
20207;SDS011;10263;48.716;8.760;2022-07-25T01:53:05;9.57;;;8.75;;
20207;SDS011;10263;48.716;8.760;2022-07-25T01:55:33;10.48;;;9.35;;
20207;SDS011;10263;48.716;8.760;2022-07-25T01:58:00;9.65;;;8.75;;
20207;SDS011;10263;48.716;8.760;2022-07-25T02:00:27;9.88;;;8.90;;
20207;SDS011;10263;48.716;8.760;2022-07-25T02:02:54;10.25;;;9.32;;
20207;SDS011;10263;48.716;8.760;2022-07-25T02:05:34;10.55;;;9.35;;
20207;SDS011;10263;48.716;8.760;2022-07-25T02:08:01;9.65;;;8.63;;
20207;SDS011;10263;48.716;8.760;2022-07-25T02:10:29;9.27;;;8.40;;
20207;SDS011;10263;48.716;8.760;2022-07-25T02:12:59;10.15;;;9.15;;
20207;SDS011;10263;48.716;8.760;2022-07-25T02:15:25;9.35;;;8.35;;
20207;SDS011;10263;48.716;8.760;2022-07-25T02:17:53;9.55;;;8.65;;
20207;SDS011;10263;48.716;8.760;2022-07-25T02:20:19;9.45;;;8.55;;
20207;SDS011;10263;48.716;8.760;2022-07-25T02:22:46;9.73;;;8.73;;
20207;SDS011;10263;48.716;8.760;2022-07-25T02:25:13;9.93;;;8.98;;
20207;SDS011;10263;48.716;8.760;2022-07-25T02:27:40;10.40;;;9.45;;
20207;SDS011;10263;48.716;8.760;2022-07-25T02:30:08;10.07;;;9.18;;
20207;SDS011;10263;48.716;8.760;2022-07-25T02:32:35;10.50;;;9.50;;
20207;SDS011;10263;48.716;8.760;2022-07-25T02:35:02;10.57;;;9.45;;
20207;SDS011;10263;48.716;8.760;2022-07-25T02:37:30;10.18;;;9.23;;
20207;SDS011;10263;48.716;8.760;2022-07-25T02:39:56;10.70;;;9.60;;
20207;SDS011;10263;48.716;8.760;2022-07-25T02:42:24;10.73;;;9.73;;
20207;SDS011;10263;48.716;8.760;2022-07-25T02:44:51;10.88;;;9.88;;
20207;SDS011;10263;48.716;8.760;2022-07-25T02:47:19;10.93;;;9.85;;
20207;SDS011;10263;48.716;8.760;2022-07-25T02:49:45;11.32;;;10.27;;
20207;SDS011;10263;48.716;8.760;2022-07-25T02:52:12;11.18;;;10.10;;
20207;SDS011;10263;48.716;8.760;2022-07-25T02:54:39;11.30;;;10.15;;
20207;SDS011;10263;48.716;8.760;2022-07-25T02:57:06;11.45;;;10.35;;
20207;SDS011;10263;48.716;8.760;2022-07-25T02:59:32;11.25;;;10.25;;
20207;SDS011;10263;48.716;8.760;2022-07-25T03:01:59;10.45;;;9.43;;
20207;SDS011;10263;48.716;8.760;2022-07-25T03:04:27;11.98;;;10.77;;
20207;SDS011;10263;48.716;8.760;2022-07-25T03:06:55;11.15;;;9.95;;
20207;SDS011;10263;48.716;8.760;2022-07-25T03:09:21;10.55;;;9.65;;
20207;SDS011;10263;48.716;8.760;2022-07-25T03:11:48;10.60;;;9.55;;
20207;SDS011;10263;48.716;8.760;2022-07-25T03:14:16;11.68;;;10.48;;
20207;SDS011;10263;48.716;8.760;2022-07-25T03:16:42;10.80;;;9.82;;
20207;SDS011;10263;48.716;8.760;2022-07-25T03:19:09;12.10;;;10.90;;
20207;SDS011;10263;48.716;8.760;2022-07-25T03:21:39;11.05;;;10.02;;
20207;SDS011;10263;48.716;8.760;2022-07-25T03:24:06;10.52;;;9.52;;
20207;SDS011;10263;48.716;8.760;2022-07-25T03:26:32;11.32;;;10.18;;
20207;SDS011;10263;48.716;8.760;2022-07-25T03:28:59;11.68;;;10.57;;
20207;SDS011;10263;48.716;8.760;2022-07-25T03:31:26;12.07;;;10.98;;
20207;SDS011;10263;48.716;8.760;2022-07-25T03:33:53;11.63;;;10.43;;
20207;SDS011;10263;48.716;8.760;2022-07-25T03:36:20;10.82;;;9.82;;
20207;SDS011;10263;48.716;8.760;2022-07-25T03:38:48;11.05;;;9.95;;
20207;SDS011;10263;48.716;8.760;2022-07-25T03:41:15;11.43;;;10.32;;
20207;SDS011;10263;48.716;8.760;2022-07-25T03:43:42;10.63;;;9.63;;
20207;SDS011;10263;48.716;8.760;2022-07-25T03:46:09;12.35;;;10.07;;
20207;SDS011;10263;48.716;8.760;2022-07-25T03:48:35;11.63;;;10.50;;
20207;SDS011;10263;48.716;8.760;2022-07-25T03:51:02;11.20;;;10.00;;
20207;SDS011;10263;48.716;8.760;2022-07-25T03:53:29;11.02;;;10.02;;
20207;SDS011;10263;48.716;8.760;2022-07-25T03:55:57;11.20;;;10.05;;
20207;SDS011;10263;48.716;8.760;2022-07-25T03:58:24;11.65;;;10.48;;
20207;SDS011;10263;48.716;8.760;2022-07-25T04:00:51;11.15;;;10.05;;
20207;SDS011;10263;48.716;8.760;2022-07-25T04:03:17;10.60;;;9.60;;
20207;SDS011;10263;48.716;8.760;2022-07-25T04:05:45;11.35;;;10.00;;
20207;SDS011;10263;48.716;8.760;2022-07-25T04:08:11;9.82;;;8.93;;
20207;SDS011;10263;48.716;8.760;2022-07-25T04:10:38;10.80;;;9.85;;
20207;SDS011;10263;48.716;8.760;2022-07-25T04:13:06;10.18;;;9.27;;
20207;SDS011;10263;48.716;8.760;2022-07-25T04:15:33;11.32;;;10.23;;
20207;SDS011;10263;48.716;8.760;2022-07-25T04:18:00;11.00;;;9.95;;
20207;SDS011;10263;48.716;8.760;2022-07-25T04:20:26;12.50;;;11.23;;
20207;SDS011;10263;48.716;8.760;2022-07-25T04:22:53;12.13;;;10.55;;
20207;SDS011;10263;48.716;8.760;2022-07-25T04:25:20;11.10;;;10.00;;
20207;SDS011;10263;48.716;8.760;2022-07-25T04:27:47;11.63;;;10.40;;
20207;SDS011;10263;48.716;8.760;2022-07-25T04:30:15;11.40;;;10.40;;
20207;SDS011;10263;48.716;8.760;2022-07-25T04:32:41;11.80;;;10.23;;
20207;SDS011;10263;48.716;8.760;2022-07-25T04:35:08;11.25;;;10.25;;
20207;SDS011;10263;48.716;8.760;2022-07-25T04:37:35;11.27;;;9.93;;
20207;SDS011;10263;48.716;8.760;2022-07-25T04:40:02;11.50;;;10.30;;
20207;SDS011;10263;48.716;8.760;2022-07-25T04:42:29;11.63;;;10.43;;
20207;SDS011;10263;48.716;8.760;2022-07-25T04:44:56;11.25;;;10.02;;
20207;SDS011;10263;48.716;8.760;2022-07-25T04:47:24;10.82;;;9.85;;
20207;SDS011;10263;48.716;8.760;2022-07-25T04:49:51;11.57;;;10.48;;
20207;SDS011;10263;48.716;8.760;2022-07-25T04:52:17;11.45;;;10.35;;
20207;SDS011;10263;48.716;8.760;2022-07-25T04:54:44;10.93;;;9.82;;
20207;SDS011;10263;48.716;8.760;2022-07-25T04:57:11;11.30;;;10.20;;
20207;SDS011;10263;48.716;8.760;2022-07-25T04:59:38;10.80;;;9.70;;
20207;SDS011;10263;48.716;8.760;2022-07-25T05:02:04;11.95;;;10.52;;
20207;SDS011;10263;48.716;8.760;2022-07-25T05:04:32;10.07;;;9.15;;
20207;SDS011;10263;48.716;8.760;2022-07-25T05:06:59;12.57;;;11.35;;
20207;SDS011;10263;48.716;8.760;2022-07-25T05:09:26;11.80;;;10.52;;
20207;SDS011;10263;48.716;8.760;2022-07-25T05:11:53;11.57;;;10.57;;
20207;SDS011;10263;48.716;8.760;2022-07-25T05:14:19;11.13;;;10.02;;
20207;SDS011;10263;48.716;8.760;2022-07-25T05:16:46;11.35;;;10.40;;
20207;SDS011;10263;48.716;8.760;2022-07-25T05:19:13;12.27;;;11.02;;
20207;SDS011;10263;48.716;8.760;2022-07-25T05:21:41;11.30;;;10.30;;
20207;SDS011;10263;48.716;8.760;2022-07-25T05:24:08;10.73;;;9.73;;
20207;SDS011;10263;48.716;8.760;2022-07-25T05:26:35;11.43;;;10.43;;
20207;SDS011;10263;48.716;8.760;2022-07-25T05:29:01;11.52;;;10.32;;
20207;SDS011;10263;48.716;8.760;2022-07-25T05:31:28;11.25;;;10.15;;
20207;SDS011;10263;48.716;8.760;2022-07-25T05:33:55;12.40;;;10.30;;
20207;SDS011;10263;48.716;8.760;2022-07-25T05:36:22;13.13;;;11.82;;
20207;SDS011;10263;48.716;8.760;2022-07-25T05:38:50;10.57;;;9.68;;
20207;SDS011;10263;48.716;8.760;2022-07-25T05:41:16;11.60;;;10.50;;
20207;SDS011;10263;48.716;8.760;2022-07-25T05:43:43;11.60;;;10.45;;
20207;SDS011;10263;48.716;8.760;2022-07-25T05:46:12;11.02;;;9.93;;
20207;SDS011;10263;48.716;8.760;2022-07-25T05:48:39;11.95;;;10.85;;
20207;SDS011;10263;48.716;8.760;2022-07-25T05:51:06;11.10;;;10.05;;
20207;SDS011;10263;48.716;8.760;2022-07-25T05:53:33;12.13;;;9.80;;
20207;SDS011;10263;48.716;8.760;2022-07-25T05:56:01;11.00;;;10.00;;
20207;SDS011;10263;48.716;8.760;2022-07-25T05:58:28;10.77;;;9.82;;
20207;SDS011;10263;48.716;8.760;2022-07-25T06:00:55;10.75;;;9.85;;
20207;SDS011;10263;48.716;8.760;2022-07-25T06:03:22;13.90;;;10.40;;
20207;SDS011;10263;48.716;8.760;2022-07-25T06:05:49;12.75;;;10.20;;
20207;SDS011;10263;48.716;8.760;2022-07-25T06:08:15;11.18;;;9.88;;
20207;SDS011;10263;48.716;8.760;2022-07-25T06:10:42;10.38;;;9.48;;
20207;SDS011;10263;48.716;8.760;2022-07-25T06:13:10;9.32;;;8.50;;
20207;SDS011;10263;48.716;8.760;2022-07-25T06:15:37;10.50;;;9.60;;
20207;SDS011;10263;48.716;8.760;2022-07-25T06:18:04;9.77;;;8.85;;
20207;SDS011;10263;48.716;8.760;2022-07-25T06:20:31;9.85;;;8.85;;
20207;SDS011;10263;48.716;8.760;2022-07-25T06:22:58;9.80;;;8.80;;
20207;SDS011;10263;48.716;8.760;2022-07-25T06:25:25;10.10;;;9.10;;
20207;SDS011;10263;48.716;8.760;2022-07-25T06:27:51;12.18;;;9.43;;
20207;SDS011;10263;48.716;8.760;2022-07-25T06:30:20;9.90;;;9.00;;
20207;SDS011;10263;48.716;8.760;2022-07-25T06:32:46;9.45;;;8.55;;
20207;SDS011;10263;48.716;8.760;2022-07-25T06:35:14;10.23;;;9.23;;
20207;SDS011;10263;48.716;8.760;2022-07-25T06:37:41;10.82;;;9.73;;
20207;SDS011;10263;48.716;8.760;2022-07-25T06:40:08;9.77;;;8.88;;
20207;SDS011;10263;48.716;8.760;2022-07-25T06:42:36;9.40;;;8.38;;
20207;SDS011;10263;48.716;8.760;2022-07-25T06:45:04;9.48;;;8.65;;
20207;SDS011;10263;48.716;8.760;2022-07-25T06:47:33;10.40;;;9.02;;
20207;SDS011;10263;48.716;8.760;2022-07-25T06:49:59;9.88;;;8.90;;
20207;SDS011;10263;48.716;8.760;2022-07-25T06:52:26;9.10;;;8.00;;
20207;SDS011;10263;48.716;8.760;2022-07-25T06:54:53;9.63;;;8.05;;
20207;SDS011;10263;48.716;8.760;2022-07-25T06:57:20;9.80;;;8.90;;
20207;SDS011;10263;48.716;8.760;2022-07-25T06:59:47;8.93;;;8.13;;
20207;SDS011;10263;48.716;8.760;2022-07-25T07:02:13;9.18;;;8.27;;
20207;SDS011;10263;48.716;8.760;2022-07-25T07:04:41;9.63;;;8.63;;
20207;SDS011;10263;48.716;8.760;2022-07-25T07:07:08;9.25;;;8.30;;
20207;SDS011;10263;48.716;8.760;2022-07-25T07:09:35;9.40;;;8.45;;
20207;SDS011;10263;48.716;8.760;2022-07-25T07:12:02;8.95;;;8.25;;
20207;SDS011;10263;48.716;8.760;2022-07-25T07:14:29;8.77;;;8.07;;
20207;SDS011;10263;48.716;8.760;2022-07-25T07:16:56;9.23;;;8.32;;
20207;SDS011;10263;48.716;8.760;2022-07-25T07:19:23;8.93;;;7.93;;
20207;SDS011;10263;48.716;8.760;2022-07-25T07:21:51;8.75;;;7.72;;
20207;SDS011;10263;48.716;8.760;2022-07-25T07:24:17;8.20;;;7.55;;
20207;SDS011;10263;48.716;8.760;2022-07-25T07:26:44;9.07;;;8.27;;
20207;SDS011;10263;48.716;8.760;2022-07-25T07:29:11;8.90;;;8.18;;
20207;SDS011;10263;48.716;8.760;2022-07-25T07:31:38;10.35;;;7.97;;
20207;SDS011;10263;48.716;8.760;2022-07-25T07:34:04;10.30;;;7.82;;
20207;SDS011;10263;48.716;8.760;2022-07-25T07:36:31;9.50;;;8.55;;
20207;SDS011;10263;48.716;8.760;2022-07-25T07:38:59;8.88;;;8.07;;
20207;SDS011;10263;48.716;8.760;2022-07-25T07:41:26;9.77;;;7.88;;
20207;SDS011;10263;48.716;8.760;2022-07-25T07:43:53;9.02;;;8.20;;
20207;SDS011;10263;48.716;8.760;2022-07-25T07:46:20;9.05;;;8.20;;
20207;SDS011;10263;48.716;8.760;2022-07-25T07:48:47;9.23;;;8.18;;
20207;SDS011;10263;48.716;8.760;2022-07-25T07:51:13;8.82;;;7.97;;
20207;SDS011;10263;48.716;8.760;2022-07-25T07:53:40;9.00;;;8.10;;
20207;SDS011;10263;48.716;8.760;2022-07-25T07:56:26;9.18;;;8.38;;
20207;SDS011;10263;48.716;8.760;2022-07-25T07:58:52;8.60;;;7.80;;
20207;SDS011;10263;48.716;8.760;2022-07-25T08:01:20;10.45;;;8.45;;
20207;SDS011;10263;48.716;8.760;2022-07-25T08:03:46;8.65;;;7.95;;
20207;SDS011;10263;48.716;8.760;2022-07-25T08:06:13;8.95;;;8.15;;
20207;SDS011;10263;48.716;8.760;2022-07-25T08:08:40;8.02;;;7.43;;
20207;SDS011;10263;48.716;8.760;2022-07-25T08:11:07;8.43;;;7.72;;
20207;SDS011;10263;48.716;8.760;2022-07-25T08:13:35;8.25;;;7.65;;
20207;SDS011;10263;48.716;8.760;2022-07-25T08:16:02;8.40;;;7.68;;
20207;SDS011;10263;48.716;8.760;2022-07-25T08:18:30;7.60;;;7.00;;
20207;SDS011;10263;48.716;8.760;2022-07-25T08:20:57;7.25;;;6.60;;
20207;SDS011;10263;48.716;8.760;2022-07-25T08:23:27;7.05;;;6.45;;
20207;SDS011;10263;48.716;8.760;2022-07-25T08:25:55;7.22;;;6.60;;
20207;SDS011;10263;48.716;8.760;2022-07-25T08:28:22;7.00;;;6.40;;
20207;SDS011;10263;48.716;8.760;2022-07-25T08:30:50;7.00;;;6.40;;
20207;SDS011;10263;48.716;8.760;2022-07-25T08:33:17;6.63;;;6.00;;
20207;SDS011;10263;48.716;8.760;2022-07-25T08:35:44;6.65;;;6.05;;
20207;SDS011;10263;48.716;8.760;2022-07-25T08:38:11;7.05;;;6.45;;
20207;SDS011;10263;48.716;8.760;2022-07-25T08:40:38;6.40;;;5.90;;
20207;SDS011;10263;48.716;8.760;2022-07-25T08:43:07;5.93;;;5.43;;
20207;SDS011;10263;48.716;8.760;2022-07-25T08:45:36;5.53;;;4.28;;
20207;SDS011;10263;48.716;8.760;2022-07-25T08:48:10;4.65;;;4.10;;
20207;SDS011;10263;48.716;8.760;2022-07-25T08:50:37;4.70;;;4.28;;
20207;SDS011;10263;48.716;8.760;2022-07-25T08:53:04;4.40;;;4.00;;
20207;SDS011;10263;48.716;8.760;2022-07-25T08:55:31;4.95;;;4.43;;
20207;SDS011;10263;48.716;8.760;2022-07-25T08:57:58;4.13;;;3.83;;
20207;SDS011;10263;48.716;8.760;2022-07-25T09:00:26;4.22;;;3.92;;
20207;SDS011;10263;48.716;8.760;2022-07-25T09:02:54;4.13;;;3.83;;
20207;SDS011;10263;48.716;8.760;2022-07-25T09:05:24;4.45;;;4.07;;
20207;SDS011;10263;48.716;8.760;2022-07-25T09:07:52;4.50;;;4.10;;
20207;SDS011;10263;48.716;8.760;2022-07-25T09:10:21;4.43;;;3.92;;
20207;SDS011;10263;48.716;8.760;2022-07-25T09:12:52;4.07;;;3.67;;
20207;SDS011;10263;48.716;8.760;2022-07-25T09:15:23;3.38;;;3.13;;
20207;SDS011;10263;48.716;8.760;2022-07-25T09:17:51;4.25;;;3.90;;
20207;SDS011;10263;48.716;8.760;2022-07-25T09:20:19;4.50;;;4.10;;
20207;SDS011;10263;48.716;8.760;2022-07-25T09:22:48;4.55;;;4.15;;
20207;SDS011;10263;48.716;8.760;2022-07-25T09:25:19;4.35;;;3.97;;
20207;SDS011;10263;48.716;8.760;2022-07-25T09:27:51;3.95;;;3.65;;
20207;SDS011;10263;48.716;8.760;2022-07-25T09:30:18;3.83;;;3.50;;
20207;SDS011;10263;48.716;8.760;2022-07-25T09:32:45;3.78;;;3.47;;
20207;SDS011;10263;48.716;8.760;2022-07-25T09:35:12;4.10;;;3.70;;
20207;SDS011;10263;48.716;8.760;2022-07-25T09:37:39;3.95;;;3.45;;
20207;SDS011;10263;48.716;8.760;2022-07-25T09:40:16;4.10;;;3.75;;
20207;SDS011;10263;48.716;8.760;2022-07-25T09:42:49;3.65;;;3.25;;
20207;SDS011;10263;48.716;8.760;2022-07-25T09:45:16;3.78;;;3.47;;
20207;SDS011;10263;48.716;8.760;2022-07-25T09:47:49;4.32;;;3.90;;
20207;SDS011;10263;48.716;8.760;2022-07-25T09:50:18;4.28;;;3.88;;
20207;SDS011;10263;48.716;8.760;2022-07-25T09:52:46;4.57;;;4.18;;
20207;SDS011;10263;48.716;8.760;2022-07-25T09:55:13;4.43;;;4.13;;
20207;SDS011;10263;48.716;8.760;2022-07-25T09:57:42;4.10;;;3.80;;
20207;SDS011;10263;48.716;8.760;2022-07-25T10:00:10;4.68;;;4.35;;
20207;SDS011;10263;48.716;8.760;2022-07-25T10:02:39;4.30;;;4.00;;
20207;SDS011;10263;48.716;8.760;2022-07-25T10:05:13;3.85;;;3.55;;
20207;SDS011;10263;48.716;8.760;2022-07-25T10:07:41;4.00;;;3.70;;
20207;SDS011;10263;48.716;8.760;2022-07-25T10:10:19;4.03;;;3.72;;
20207;SDS011;10263;48.716;8.760;2022-07-25T10:12:58;4.45;;;3.97;;
20207;SDS011;10263;48.716;8.760;2022-07-25T10:15:26;3.95;;;3.28;;
20207;SDS011;10263;48.716;8.760;2022-07-25T10:18:05;4.18;;;3.78;;
20207;SDS011;10263;48.716;8.760;2022-07-25T10:20:32;4.50;;;4.10;;
20207;SDS011;10263;48.716;8.760;2022-07-25T10:22:59;5.72;;;4.28;;
20207;SDS011;10263;48.716;8.760;2022-07-25T10:25:26;4.05;;;3.75;;
20207;SDS011;10263;48.716;8.760;2022-07-25T10:27:54;4.63;;;4.15;;
20207;SDS011;10263;48.716;8.760;2022-07-25T10:30:36;4.45;;;4.13;;
20207;SDS011;10263;48.716;8.760;2022-07-25T10:33:09;3.92;;;3.63;;
20207;SDS011;10263;48.716;8.760;2022-07-25T10:35:37;4.05;;;3.65;;
20207;SDS011;10263;48.716;8.760;2022-07-25T10:38:04;4.28;;;3.97;;
20207;SDS011;10263;48.716;8.760;2022-07-25T10:40:32;3.97;;;3.67;;
20207;SDS011;10263;48.716;8.760;2022-07-25T10:43:06;4.60;;;3.58;;
20207;SDS011;10263;48.716;8.760;2022-07-25T10:45:39;3.80;;;3.50;;
20207;SDS011;10263;48.716;8.760;2022-07-25T10:48:08;9.65;;;4.25;;
20207;SDS011;10263;48.716;8.760;2022-07-25T10:50:47;4.30;;;3.90;;
20207;SDS011;10263;48.716;8.760;2022-07-25T10:53:25;4.45;;;4.03;;
20207;SDS011;10263;48.716;8.760;2022-07-25T10:55:57;4.13;;;3.72;;
20207;SDS011;10263;48.716;8.760;2022-07-25T10:58:25;4.47;;;3.30;;
20207;SDS011;10263;48.716;8.760;2022-07-25T11:00:52;4.53;;;4.13;;
20207;SDS011;10263;48.716;8.760;2022-07-25T11:03:19;4.00;;;3.70;;
20207;SDS011;10263;48.716;8.760;2022-07-25T11:05:46;4.10;;;3.80;;
20207;SDS011;10263;48.716;8.760;2022-07-25T11:08:15;4.22;;;3.83;;
20207;SDS011;10263;48.716;8.760;2022-07-25T11:10:45;4.35;;;4.03;;
20207;SDS011;10263;48.716;8.760;2022-07-25T11:13:17;3.97;;;3.67;;
20207;SDS011;10263;48.716;8.760;2022-07-25T11:15:45;5.00;;;4.60;;
20207;SDS011;10263;48.716;8.760;2022-07-25T11:18:12;5.32;;;4.78;;
20207;SDS011;10263;48.716;8.760;2022-07-25T11:20:39;4.60;;;4.20;;
20207;SDS011;10263;48.716;8.760;2022-07-25T11:23:05;5.15;;;4.53;;
20207;SDS011;10263;48.716;8.760;2022-07-25T11:25:32;5.13;;;4.50;;
20207;SDS011;10263;48.716;8.760;2022-07-25T11:27:59;4.68;;;4.25;;
20207;SDS011;10263;48.716;8.760;2022-07-25T11:30:27;5.00;;;4.47;;
20207;SDS011;10263;48.716;8.760;2022-07-25T11:32:56;4.68;;;4.32;;
20207;SDS011;10263;48.716;8.760;2022-07-25T11:35:27;4.55;;;4.15;;
20207;SDS011;10263;48.716;8.760;2022-07-25T11:37:55;4.28;;;3.88;;
20207;SDS011;10263;48.716;8.760;2022-07-25T11:40:25;4.45;;;4.05;;
20207;SDS011;10263;48.716;8.760;2022-07-25T11:42:53;4.50;;;4.10;;
20207;SDS011;10263;48.716;8.760;2022-07-25T11:45:22;4.70;;;4.30;;
20207;SDS011;10263;48.716;8.760;2022-07-25T11:48:02;4.47;;;4.10;;
20207;SDS011;10263;48.716;8.760;2022-07-25T11:50:32;4.82;;;4.53;;
20207;SDS011;10263;48.716;8.760;2022-07-25T11:53:01;5.13;;;4.72;;
20207;SDS011;10263;48.716;8.760;2022-07-25T11:55:30;4.97;;;4.57;;
20207;SDS011;10263;48.716;8.760;2022-07-25T11:58:01;4.65;;;4.07;;
20207;SDS011;10263;48.716;8.760;2022-07-25T12:00:29;4.70;;;4.38;;
20207;SDS011;10263;48.716;8.760;2022-07-25T12:03:06;5.07;;;4.43;;
20207;SDS011;10263;48.716;8.760;2022-07-25T12:05:34;4.82;;;4.43;;
20207;SDS011;10263;48.716;8.760;2022-07-25T12:08:07;4.75;;;4.35;;
20207;SDS011;10263;48.716;8.760;2022-07-25T12:10:35;5.63;;;5.10;;
20207;SDS011;10263;48.716;8.760;2022-07-25T12:13:04;4.70;;;4.40;;
20207;SDS011;10263;48.716;8.760;2022-07-25T12:15:34;4.65;;;4.25;;
20207;SDS011;10263;48.716;8.760;2022-07-25T12:18:01;5.15;;;4.75;;
20207;SDS011;10263;48.716;8.760;2022-07-25T12:20:31;4.88;;;4.47;;
20207;SDS011;10263;48.716;8.760;2022-07-25T12:22:59;4.80;;;4.40;;
20207;SDS011;10263;48.716;8.760;2022-07-25T12:25:28;5.03;;;4.63;;
20207;SDS011;10263;48.716;8.760;2022-07-25T12:27:56;5.30;;;4.80;;
20207;SDS011;10263;48.716;8.760;2022-07-25T12:30:23;4.97;;;4.57;;
20207;SDS011;10263;48.716;8.760;2022-07-25T12:32:51;4.72;;;4.40;;
20207;SDS011;10263;48.716;8.760;2022-07-25T12:35:17;5.22;;;4.72;;
20207;SDS011;10263;48.716;8.760;2022-07-25T12:37:46;5.10;;;4.70;;
20207;SDS011;10263;48.716;8.760;2022-07-25T12:40:13;5.47;;;4.97;;
20207;SDS011;10263;48.716;8.760;2022-07-25T12:42:41;4.85;;;4.53;;
20207;SDS011;10263;48.716;8.760;2022-07-25T12:45:09;4.85;;;4.55;;
20207;SDS011;10263;48.716;8.760;2022-07-25T12:47:36;5.10;;;4.70;;
20207;SDS011;10263;48.716;8.760;2022-07-25T12:50:03;5.05;;;4.55;;
20207;SDS011;10263;48.716;8.760;2022-07-25T12:52:31;4.75;;;4.07;;
20207;SDS011;10263;48.716;8.760;2022-07-25T12:55:00;5.30;;;4.90;;
20207;SDS011;10263;48.716;8.760;2022-07-25T12:57:27;4.70;;;4.30;;
20207;SDS011;10263;48.716;8.760;2022-07-25T12:59:53;5.70;;;4.88;;
20207;SDS011;10263;48.716;8.760;2022-07-25T13:02:21;5.68;;;4.82;;
20207;SDS011;10263;48.716;8.760;2022-07-25T13:04:48;5.68;;;5.03;;
20207;SDS011;10263;48.716;8.760;2022-07-25T13:07:15;5.35;;;4.95;;
20207;SDS011;10263;48.716;8.760;2022-07-25T13:09:41;5.55;;;5.15;;
20207;SDS011;10263;48.716;8.760;2022-07-25T13:12:10;5.57;;;5.07;;
20207;SDS011;10263;48.716;8.760;2022-07-25T13:14:37;5.93;;;5.18;;
20207;SDS011;10263;48.716;8.760;2022-07-25T13:17:04;5.63;;;4.93;;
20207;SDS011;10263;48.716;8.760;2022-07-25T13:19:31;6.32;;;5.13;;
20207;SDS011;10263;48.716;8.760;2022-07-25T13:21:58;6.40;;;5.70;;
20207;SDS011;10263;48.716;8.760;2022-07-25T13:24:25;6.80;;;6.13;;
20207;SDS011;10263;48.716;8.760;2022-07-25T13:26:52;6.35;;;5.72;;
20207;SDS011;10263;48.716;8.760;2022-07-25T13:29:20;6.40;;;5.78;;
20207;SDS011;10263;48.716;8.760;2022-07-25T13:31:47;6.45;;;5.90;;
20207;SDS011;10263;48.716;8.760;2022-07-25T13:34:13;6.80;;;6.10;;
20207;SDS011;10263;48.716;8.760;2022-07-25T13:36:40;7.07;;;6.22;;
20207;SDS011;10263;48.716;8.760;2022-07-25T13:39:07;7.03;;;6.45;;
20207;SDS011;10263;48.716;8.760;2022-07-25T13:41:34;7.45;;;6.68;;
20207;SDS011;10263;48.716;8.760;2022-07-25T13:44:08;7.70;;;5.93;;
20207;SDS011;10263;48.716;8.760;2022-07-25T13:46:36;6.50;;;5.90;;
20207;SDS011;10263;48.716;8.760;2022-07-25T13:49:02;6.80;;;6.15;;
20207;SDS011;10263;48.716;8.760;2022-07-25T13:51:29;7.82;;;6.38;;
20207;SDS011;10263;48.716;8.760;2022-07-25T13:53:56;6.72;;;6.07;;
20207;SDS011;10263;48.716;8.760;2022-07-25T13:56:23;7.28;;;6.18;;
20207;SDS011;10263;48.716;8.760;2022-07-25T13:58:49;6.82;;;5.80;;
20207;SDS011;10263;48.716;8.760;2022-07-25T14:01:16;7.13;;;6.43;;
20207;SDS011;10263;48.716;8.760;2022-07-25T14:03:44;6.95;;;6.35;;
20207;SDS011;10263;48.716;8.760;2022-07-25T14:06:11;6.90;;;6.20;;
20207;SDS011;10263;48.716;8.760;2022-07-25T14:08:38;7.03;;;6.32;;
20207;SDS011;10263;48.716;8.760;2022-07-25T14:11:05;7.00;;;6.40;;
20207;SDS011;10263;48.716;8.760;2022-07-25T14:13:32;7.03;;;6.28;;
20207;SDS011;10263;48.716;8.760;2022-07-25T14:15:59;8.88;;;6.70;;
20207;SDS011;10263;48.716;8.760;2022-07-25T14:18:26;6.65;;;6.15;;
20207;SDS011;10263;48.716;8.760;2022-07-25T14:20:55;6.38;;;5.78;;
20207;SDS011;10263;48.716;8.760;2022-07-25T14:23:22;6.78;;;6.07;;
20207;SDS011;10263;48.716;8.760;2022-07-25T14:25:50;7.38;;;6.68;;
20207;SDS011;10263;48.716;8.760;2022-07-25T14:28:17;6.65;;;6.05;;
20207;SDS011;10263;48.716;8.760;2022-07-25T14:30:43;7.22;;;6.63;;
20207;SDS011;10263;48.716;8.760;2022-07-25T14:33:10;7.00;;;6.30;;
20207;SDS011;10263;48.716;8.760;2022-07-25T14:35:37;6.90;;;5.88;;
20207;SDS011;10263;48.716;8.760;2022-07-25T14:38:05;7.10;;;6.50;;
20207;SDS011;10263;48.716;8.760;2022-07-25T14:40:32;6.95;;;6.40;;
20207;SDS011;10263;48.716;8.760;2022-07-25T14:42:59;7.82;;;7.05;;